createdAt,value
2022-12-15T00:01:20.171Z,90.40
2022-12-15T00:03:10.816Z,90.36
2022-12-15T00:05:01.341Z,90.13
2022-12-15T00:06:52.012Z,90.21
2022-12-15T00:08:42.446Z,90.38
2022-12-15T00:10:33.065Z,90.56
2022-12-15T00:12:23.679Z,90.35
2022-12-15T00:14:14.421Z,90.26
2022-12-15T00:16:06.245Z,90.44
2022-12-15T00:17:56.726Z,90.40
2022-12-15T00:19:47.535Z,90.45
2022-12-15T00:21:38.307Z,90.61
2022-12-15T00:23:31.362Z,90.67
2022-12-15T00:25:21.931Z,90.65
2022-12-15T00:27:12.824Z,90.39
2022-12-15T00:29:03.508Z,90.42
2022-12-15T00:30:58.892Z,90.29
2022-12-15T00:32:52.735Z,90.23
2022-12-15T00:34:43.047Z,89.92
2022-12-15T00:36:33.729Z,90.05
2022-12-15T00:38:32.543Z,90.08
2022-12-15T00:40:05.705Z,89.93
2022-12-15T00:41:37.745Z,90.15
2022-12-15T00:43:15.984Z,89.90
2022-12-15T00:44:48.003Z,90.11
2022-12-15T00:46:38.599Z,90.25
2022-12-15T00:48:10.566Z,90.23
2022-12-15T00:50:01.265Z,90.41
2022-12-15T00:51:51.842Z,90.26
2022-12-15T00:53:43.437Z,90.36
2022-12-15T00:55:33.970Z,90.50
2022-12-15T00:57:24.653Z,90.52
2022-12-15T00:59:15.194Z,90.80
2022-12-15T01:01:05.660Z,90.80
2022-12-15T01:02:56.452Z,90.79
2022-12-15T01:04:47.514Z,90.57
2022-12-15T01:06:38.681Z,90.43
2022-12-15T01:08:29.458Z,90.43
2022-12-15T01:10:20.223Z,90.50
2022-12-15T01:12:11.818Z,90.72
2022-12-15T01:14:02.529Z,90.72
2022-12-15T01:15:55.563Z,90.87
2022-12-15T01:17:45.943Z,90.74
2022-12-15T01:19:36.628Z,90.66
2022-12-15T01:21:09.657Z,90.66
2022-12-15T01:22:41.864Z,90.48
2022-12-15T01:24:13.877Z,90.41
2022-12-15T01:25:45.835Z,90.40
2022-12-15T01:27:24.760Z,90.69
2022-12-15T01:28:56.790Z,90.73
2022-12-15T01:30:31.530Z,90.74
2022-12-15T01:32:03.588Z,90.79
2022-12-15T01:33:35.583Z,90.68
2022-12-15T01:35:08.575Z,90.68
2022-12-15T01:36:40.583Z,90.74
2022-12-15T01:38:12.588Z,90.80
2022-12-15T01:40:05.153Z,90.67
2022-12-15T01:41:37.086Z,90.70
2022-12-15T01:43:30.824Z,90.77
2022-12-15T01:45:24.896Z,90.77
2022-12-15T01:46:57.150Z,90.82
2022-12-15T01:48:34.196Z,91.20
2022-12-15T01:50:13.452Z,91.04
2022-12-15T01:51:49.267Z,90.99
2022-12-15T01:53:21.252Z,90.81
2022-12-15T01:54:56.894Z,91.03
2022-12-15T01:56:33.997Z,91.01
2022-12-15T01:58:09.783Z,91.20
2022-12-15T01:59:46.721Z,91.31
2022-12-15T02:01:18.822Z,91.21
2022-12-15T02:02:51.663Z,91.23
2022-12-15T02:04:24.100Z,91.38
2022-12-15T02:05:57.511Z,91.30
2022-12-15T02:07:29.499Z,91.18
2022-12-15T02:09:01.849Z,90.95
2022-12-15T02:11:08.767Z,90.81
2022-12-15T02:13:08.480Z,91.10
2022-12-15T02:14:47.903Z,91.21
2022-12-15T02:16:42.713Z,91.14
2022-12-15T02:18:17.796Z,91.13
2022-12-15T02:20:01.678Z,91.07
2022-12-15T02:21:41.101Z,91.04
2022-12-15T02:23:16.194Z,91.03
2022-12-15T02:25:02.915Z,90.95
2022-12-15T02:26:53.643Z,90.96
2022-12-15T02:28:53.610Z,91.15
2022-12-15T02:31:41.122Z,91.31
2022-12-15T02:33:24.953Z,91.62
2022-12-15T02:35:04.225Z,91.76
2022-12-15T02:36:39.303Z,91.85
2022-12-15T02:38:11.435Z,91.83
2022-12-15T02:39:44.061Z,91.81
2022-12-15T02:41:38.580Z,91.69
2022-12-15T02:43:10.401Z,91.54
2022-12-15T02:44:55.206Z,91.79
2022-12-15T02:48:52.083Z,91.68
2022-12-15T02:50:51.663Z,91.78
2022-12-15T02:52:26.290Z,91.86
2022-12-15T02:54:29.037Z,91.74
2022-12-15T02:56:11.254Z,91.64
2022-12-15T02:57:58.992Z,91.65
2022-12-15T02:59:47.814Z,91.63
2022-12-15T03:01:31.523Z,91.69
2022-12-15T03:03:03.797Z,91.67
2022-12-15T03:04:37.520Z,91.63
2022-12-15T03:06:09.681Z,91.35
2022-12-15T03:07:43.089Z,91.46
2022-12-15T03:09:15.051Z,91.21
2022-12-15T03:10:47.661Z,91.32
2022-12-15T03:12:19.657Z,91.28
2022-12-15T03:13:52.139Z,91.17
2022-12-15T03:15:24.110Z,91.04
2022-12-15T03:16:56.417Z,90.90
2022-12-15T03:18:28.560Z,90.89
2022-12-15T03:20:00.623Z,90.72
2022-12-15T03:21:32.596Z,90.78
2022-12-15T03:23:04.560Z,90.72
2022-12-15T03:24:36.528Z,90.46
2022-12-15T03:26:12.384Z,90.55
2022-12-15T03:27:46.309Z,90.56
2022-12-15T03:29:18.523Z,90.35
2022-12-15T03:30:50.887Z,90.19
2022-12-15T03:32:22.981Z,89.93
2022-12-15T03:33:55.828Z,89.75
2022-12-15T03:35:27.786Z,89.63
2022-12-15T03:36:59.748Z,89.82
2022-12-15T03:38:31.663Z,89.55
2022-12-15T03:40:03.795Z,89.67
2022-12-15T03:41:35.762Z,89.79
2022-12-15T03:43:07.728Z,89.89
2022-12-15T03:44:39.717Z,89.88
2022-12-15T03:47:51.197Z,90.30
2022-12-15T03:49:23.154Z,90.13
2022-12-15T03:50:55.574Z,90.39
2022-12-15T03:52:27.567Z,90.04
2022-12-15T03:53:59.560Z,90.08
2022-12-15T03:55:31.716Z,90.13
2022-12-15T03:57:03.801Z,90.31
2022-12-15T03:58:35.822Z,90.35
2022-12-15T04:00:08.682Z,90.25
2022-12-15T04:01:46.417Z,90.01
2022-12-15T04:03:18.630Z,90.22
2022-12-15T04:04:50.640Z,90.33
2022-12-15T04:06:22.996Z,90.49
2022-12-15T04:07:56.295Z,90.41
2022-12-15T04:09:28.231Z,90.43
2022-12-15T04:11:00.202Z,90.47
2022-12-15T04:12:32.171Z,90.43
2022-12-15T04:14:07.278Z,90.54
2022-12-15T04:17:12.516Z,90.34
2022-12-15T04:18:44.707Z,90.37
2022-12-15T04:20:16.711Z,90.53
2022-12-15T04:21:49.744Z,90.64
2022-12-15T04:23:22.577Z,90.52
2022-12-15T04:25:12.880Z,90.38
2022-12-15T04:27:03.429Z,90.40
2022-12-15T04:28:54.038Z,90.23
2022-12-15T04:30:44.842Z,90.19
2022-12-15T04:32:35.746Z,90.18
2022-12-15T04:34:31.113Z,89.92
2022-12-15T04:36:21.947Z,90.07
2022-12-15T04:38:12.420Z,90.15
2022-12-15T04:40:07.020Z,89.89
2022-12-15T04:41:57.392Z,89.65
2022-12-15T04:43:48.227Z,89.82
2022-12-15T04:45:41.119Z,89.82
2022-12-15T04:47:31.757Z,89.70
2022-12-15T04:49:22.568Z,89.72
2022-12-15T04:51:13.184Z,89.88
2022-12-15T04:53:03.897Z,89.88
2022-12-15T04:54:54.554Z,89.97
2022-12-15T04:56:45.093Z,89.82
2022-12-15T04:58:35.620Z,89.85
2022-12-15T05:00:27.614Z,89.80
2022-12-15T05:02:18.296Z,90.07
2022-12-15T05:04:08.891Z,90.22
2022-12-15T05:05:59.317Z,90.38
2022-12-15T05:07:50.055Z,90.51
2022-12-15T05:09:40.764Z,90.54
2022-12-15T05:11:31.395Z,90.63
2022-12-15T05:13:25.747Z,90.49
2022-12-15T05:15:16.527Z,90.64
2022-12-15T05:17:07.587Z,90.57
2022-12-15T05:18:58.235Z,90.53
2022-12-15T05:20:50.173Z,90.57
2022-12-15T05:22:40.870Z,90.73
2022-12-15T05:24:31.606Z,90.65
2022-12-15T05:26:22.313Z,90.83
2022-12-15T05:28:13.058Z,90.49
2022-12-15T05:30:03.704Z,90.53
2022-12-15T05:31:55.407Z,90.46
2022-12-15T05:33:27.628Z,90.59
2022-12-15T05:34:59.765Z,90.62
2022-12-15T05:36:31.825Z,90.28
2022-12-15T05:38:05.802Z,90.20
2022-12-15T05:39:37.844Z,90.19
2022-12-15T05:41:09.928Z,90.24
2022-12-15T05:42:42.040Z,90.20
2022-12-15T05:44:14.425Z,90.12
2022-12-15T05:45:46.471Z,90.31
2022-12-15T05:47:18.513Z,90.17
2022-12-15T05:48:50.808Z,90.09
2022-12-15T05:50:23.727Z,90.32
2022-12-15T05:51:57.516Z,90.48
2022-12-15T05:53:29.844Z,90.26
2022-12-15T05:55:02.090Z,90.44
2022-12-15T05:56:34.122Z,90.43
2022-12-15T05:58:06.190Z,90.47
2022-12-15T05:59:38.236Z,90.53
2022-12-15T06:01:13.841Z,90.35
2022-12-15T06:02:45.912Z,90.41
2022-12-15T06:04:18.078Z,90.40
2022-12-15T06:05:56.161Z,90.24
2022-12-15T06:07:28.567Z,90.21
2022-12-15T06:09:00.634Z,90.17
2022-12-15T06:10:32.657Z,90.22
2022-12-15T06:12:04.847Z,90.09
2022-12-15T06:13:36.948Z,89.93
2022-12-15T06:15:09.421Z,89.98
2022-12-15T06:16:50.042Z,90.08
2022-12-15T06:18:24.077Z,89.82
2022-12-15T06:19:56.165Z,90.06
2022-12-15T06:21:35.758Z,90.18
2022-12-15T06:23:07.875Z,90.28
2022-12-15T06:24:39.899Z,90.39
2022-12-15T06:26:34.632Z,90.31
2022-12-15T06:28:06.680Z,90.46
2022-12-15T06:29:38.687Z,90.39
2022-12-15T06:31:12.196Z,90.07
2022-12-15T06:32:44.052Z,90.14
2022-12-15T06:35:48.242Z,90.15
2022-12-15T06:37:20.268Z,89.73
2022-12-15T06:38:52.743Z,89.70
2022-12-15T06:40:24.755Z,89.79
2022-12-15T06:41:56.748Z,89.49
2022-12-15T06:43:29.595Z,89.22
2022-12-15T06:45:01.920Z,89.12
2022-12-15T06:46:35.366Z,88.84
2022-12-15T06:48:07.523Z,88.98
2022-12-15T06:49:39.594Z,88.81
2022-12-15T06:51:16.812Z,88.91
2022-12-15T06:52:49.500Z,88.97
2022-12-15T06:54:21.688Z,89.09
2022-12-15T06:55:53.661Z,89.28
2022-12-15T06:57:25.627Z,89.16
2022-12-15T06:58:59.103Z,89.13
2022-12-15T07:00:34.697Z,89.03
2022-12-15T07:02:10.450Z,89.05
2022-12-15T07:03:44.843Z,89.06
2022-12-15T07:05:17.072Z,89.23
2022-12-15T07:06:49.450Z,89.01
2022-12-15T07:08:24.443Z,89.26
2022-12-15T07:10:00.734Z,89.22
2022-12-15T07:11:33.271Z,89.14
2022-12-15T07:13:05.182Z,89.22
2022-12-15T07:14:37.101Z,89.21
2022-12-15T07:16:10.380Z,89.15
2022-12-15T07:17:42.566Z,89.21
2022-12-15T07:19:14.780Z,89.38
2022-12-15T07:20:46.854Z,89.41
2022-12-15T07:22:22.769Z,89.24
2022-12-15T07:23:56.734Z,89.23
2022-12-15T07:25:29.926Z,89.52
2022-12-15T07:27:01.917Z,89.72
2022-12-15T07:28:34.916Z,89.42
2022-12-15T07:30:07.961Z,89.57
2022-12-15T07:31:40.622Z,89.47
2022-12-15T07:33:12.764Z,89.42
2022-12-15T07:34:44.830Z,89.51
2022-12-15T07:36:16.945Z,89.61
2022-12-15T07:37:48.970Z,89.94
2022-12-15T07:39:21.515Z,89.55
2022-12-15T07:40:53.791Z,89.28
2022-12-15T07:42:25.790Z,89.35
2022-12-15T07:43:58.692Z,89.31
2022-12-15T07:45:30.793Z,89.50
2022-12-15T07:47:02.811Z,89.40
2022-12-15T07:48:35.013Z,89.65
2022-12-15T07:50:08.230Z,89.45
2022-12-15T07:51:41.563Z,89.35
2022-12-15T07:53:13.608Z,89.18
2022-12-15T07:54:45.785Z,89.35
2022-12-15T07:56:21.104Z,89.20
2022-12-15T07:57:53.109Z,89.25
2022-12-15T07:59:25.176Z,89.25
2022-12-15T08:01:01.230Z,89.25
2022-12-15T08:02:33.397Z,89.29
2022-12-15T08:04:05.754Z,89.43
2022-12-15T08:05:38.076Z,89.44
2022-12-15T08:07:10.690Z,89.45
2022-12-15T08:08:44.594Z,89.40
2022-12-15T08:10:16.978Z,89.44
2022-12-15T08:11:49.019Z,89.34
2022-12-15T08:13:52.448Z,89.35
2022-12-15T08:15:13.147Z,89.24
2022-12-15T08:16:45.709Z,88.92
2022-12-15T08:18:17.853Z,89.26
2022-12-15T08:19:49.833Z,88.88
2022-12-15T08:21:21.836Z,88.74
2022-12-15T08:22:53.883Z,88.66
2022-12-15T08:24:25.942Z,89.06
2022-12-15T08:26:12.204Z,88.77
2022-12-15T08:27:47.362Z,88.71
2022-12-15T08:31:19.875Z,88.89
2022-12-15T08:32:57.819Z,88.76
2022-12-15T08:34:29.835Z,89.03
2022-12-15T08:36:04.874Z,88.83
2022-12-15T08:37:36.997Z,88.73
2022-12-15T08:39:09.050Z,88.57
2022-12-15T08:40:41.006Z,88.72
2022-12-15T08:42:13.065Z,88.35
2022-12-15T08:43:48.552Z,88.44
2022-12-15T08:45:21.148Z,88.15
2022-12-15T08:46:53.191Z,88.15
2022-12-15T08:48:25.236Z,88.04
2022-12-15T08:49:57.253Z,88.39
2022-12-15T08:51:31.327Z,88.24
2022-12-15T08:53:29.527Z,88.46
2022-12-15T08:54:55.767Z,88.33
2022-12-15T08:56:28.224Z,88.10
2022-12-15T08:58:00.313Z,88.17
2022-12-15T08:59:32.399Z,87.94
2022-12-15T09:01:06.603Z,87.91
2022-12-15T09:04:12.630Z,86.91
2022-12-15T09:05:44.729Z,87.26
2022-12-15T09:07:16.685Z,87.18
2022-12-15T09:08:50.216Z,87.08
2022-12-15T09:10:23.877Z,87.32
2022-12-15T09:11:55.856Z,87.41
2022-12-15T09:13:29.225Z,87.28
2022-12-15T09:15:01.612Z,86.85
2022-12-15T09:16:33.773Z,87.19
2022-12-15T09:18:06.026Z,86.98
2022-12-15T09:19:38.162Z,86.79
2022-12-15T09:21:11.552Z,86.88
2022-12-15T09:22:43.563Z,86.75
2022-12-15T09:24:23.192Z,86.61
2022-12-15T09:26:02.329Z,86.78
2022-12-15T09:27:35.547Z,86.62
2022-12-15T09:29:07.486Z,86.28
2022-12-15T09:30:39.582Z,86.30
2022-12-15T09:32:14.308Z,86.19
2022-12-15T09:33:46.682Z,86.26
2022-12-15T09:35:18.739Z,86.44
2022-12-15T09:36:50.801Z,86.38
2022-12-15T09:40:01.830Z,85.54
2022-12-15T09:41:35.497Z,85.56
2022-12-15T09:43:33.359Z,85.30
2022-12-15T09:45:14.421Z,85.27
2022-12-15T09:47:12.381Z,85.01
2022-12-15T09:48:45.899Z,84.48
2022-12-15T09:50:24.007Z,84.63
2022-12-15T09:52:08.990Z,84.17
2022-12-15T09:53:59.164Z,84.35
2022-12-15T09:55:35.694Z,84.30
2022-12-15T09:57:26.871Z,84.31
2022-12-15T09:59:10.270Z,84.24
2022-12-15T10:00:59.718Z,84.36
2022-12-15T10:02:38.331Z,84.55
2022-12-15T10:04:16.043Z,85.03
2022-12-15T10:06:18.226Z,85.16
2022-12-15T10:07:52.067Z,84.70
2022-12-15T10:09:28.733Z,84.10
2022-12-15T10:11:05.926Z,84.10
2022-12-15T10:12:45.504Z,84.18
2022-12-15T10:14:28.877Z,84.41
2022-12-15T10:16:08.090Z,84.57
2022-12-15T10:17:50.312Z,84.53
2022-12-15T10:21:38.719Z,84.56
2022-12-15T10:23:17.501Z,83.98
2022-12-15T10:26:43.161Z,83.07
2022-12-15T10:28:18.048Z,82.69
2022-12-15T10:30:09.496Z,82.41
2022-12-15T10:31:58.384Z,82.22
2022-12-15T10:33:38.751Z,82.80
2022-12-15T10:35:16.968Z,82.60
2022-12-15T10:36:51.732Z,83.01
2022-12-15T10:38:27.538Z,82.90
2022-12-15T10:39:59.615Z,82.91
2022-12-15T10:41:34.129Z,82.57
2022-12-15T10:43:14.158Z,82.90
2022-12-15T10:44:50.308Z,83.25
2022-12-15T10:46:28.017Z,83.43
2022-12-15T10:48:02.745Z,83.57
2022-12-15T10:49:34.709Z,83.49
2022-12-15T10:51:32.016Z,83.38
2022-12-15T10:53:09.685Z,84.25
2022-12-15T10:54:45.763Z,84.28
2022-12-15T10:56:28.752Z,84.48
2022-12-15T10:58:05.596Z,84.51
2022-12-15T10:59:39.011Z,84.42
2022-12-15T11:01:18.306Z,84.32
2022-12-15T11:02:50.641Z,84.33
2022-12-15T11:04:33.222Z,84.54
2022-12-15T11:06:14.928Z,84.67
2022-12-15T11:07:55.201Z,84.82
2022-12-15T11:09:36.607Z,84.95
2022-12-15T11:11:57.731Z,84.64
2022-12-15T11:13:33.187Z,84.69
2022-12-15T11:15:25.623Z,84.86
2022-12-15T11:16:59.278Z,84.96
2022-12-15T11:18:33.453Z,84.73
2022-12-15T11:20:11.531Z,84.99
2022-12-15T11:21:46.702Z,85.10
2022-12-15T11:23:46.610Z,85.01
2022-12-15T11:25:42.720Z,85.09
2022-12-15T11:27:27.684Z,85.02
2022-12-15T11:29:03.099Z,84.80
2022-12-15T11:30:39.505Z,84.87
2022-12-15T11:32:13.185Z,84.88
2022-12-15T11:33:45.262Z,85.58
2022-12-15T11:35:44.895Z,85.39
2022-12-15T11:37:41.897Z,85.26
2022-12-15T11:39:23.275Z,85.08
2022-12-15T11:40:57.036Z,85.21
2022-12-15T11:42:48.826Z,85.22
2022-12-15T11:44:45.293Z,85.40
2022-12-15T11:46:24.179Z,85.46
2022-12-15T11:48:08.406Z,85.77
2022-12-15T11:49:52.431Z,85.82
2022-12-15T11:51:29.806Z,85.69
2022-12-15T11:53:12.994Z,85.44
2022-12-15T11:54:55.817Z,85.48
2022-12-15T11:56:34.825Z,85.30
2022-12-15T11:58:12.740Z,85.38
2022-12-15T12:00:19.634Z,85.42
2022-12-15T12:02:19.723Z,85.39
2022-12-15T12:04:21.299Z,85.85
2022-12-15T12:06:08.737Z,85.83
2022-12-15T12:07:53.309Z,85.68
2022-12-15T12:09:35.545Z,86.08
2022-12-15T12:11:23.716Z,85.64
2022-12-15T12:13:04.759Z,86.10
2022-12-15T12:14:50.411Z,86.04
2022-12-15T12:16:44.559Z,86.06
2022-12-15T12:18:26.721Z,86.41
2022-12-15T12:20:03.861Z,86.49
2022-12-15T12:21:51.260Z,87.13
2022-12-15T12:23:29.490Z,87.33
2022-12-15T12:25:06.517Z,87.42
2022-12-15T12:26:42.470Z,87.38
2022-12-15T12:28:21.752Z,87.32
2022-12-15T12:30:18.457Z,87.11
2022-12-15T12:32:14.530Z,87.31
2022-12-15T12:33:49.921Z,87.28
2022-12-15T12:35:39.830Z,87.53
2022-12-15T12:37:42.219Z,87.60
2022-12-15T12:39:20.718Z,88.13
2022-12-15T12:40:52.990Z,88.45
2022-12-15T12:42:34.121Z,88.80
2022-12-15T12:44:22.742Z,88.97
2022-12-15T12:46:01.363Z,89.33
2022-12-15T12:47:36.856Z,89.71
2022-12-15T12:49:21.353Z,89.70
2022-12-15T12:51:14.509Z,89.38
2022-12-15T12:52:55.028Z,89.43
2022-12-15T12:56:30.815Z,89.36
2022-12-15T12:58:03.026Z,89.45
2022-12-15T12:59:38.573Z,89.51
2022-12-15T13:01:31.331Z,89.39
2022-12-15T13:03:23.728Z,89.42
2022-12-15T13:04:58.271Z,89.79
2022-12-15T13:06:36.359Z,89.63
2022-12-15T13:08:09.087Z,89.90
2022-12-15T13:12:15.097Z,89.64
2022-12-15T13:13:53.933Z,90.13
2022-12-15T13:15:29.208Z,90.31
2022-12-15T13:19:07.969Z,90.32
2022-12-15T13:20:40.676Z,90.21
2022-12-15T13:22:32.616Z,90.25
2022-12-15T13:24:04.772Z,90.44
2022-12-15T13:25:38.316Z,90.33
2022-12-15T13:27:10.073Z,90.50
2022-12-15T13:28:45.554Z,90.72
2022-12-15T13:30:18.362Z,90.68
2022-12-15T13:31:51.264Z,90.39
2022-12-15T13:33:24.120Z,90.54
2022-12-15T13:34:56.579Z,90.61
2022-12-15T13:36:37.717Z,90.71
2022-12-15T13:38:18.102Z,90.68
2022-12-15T13:41:25.386Z,90.68
2022-12-15T13:42:59.340Z,90.80
2022-12-15T13:44:36.476Z,90.88
2022-12-15T13:46:16.832Z,90.88
2022-12-15T13:47:52.572Z,90.91
2022-12-15T13:49:53.266Z,90.77
2022-12-15T13:51:38.723Z,90.69
2022-12-15T13:53:19.724Z,90.64
2022-12-15T13:54:56.929Z,90.76
2022-12-15T13:56:40.898Z,90.70
2022-12-15T13:58:17.681Z,90.74
2022-12-15T13:59:58.069Z,90.72
2022-12-15T14:03:24.663Z,90.64
2022-12-15T14:05:26.069Z,90.59
2022-12-15T14:07:01.498Z,90.65
2022-12-15T14:08:33.564Z,90.62
2022-12-15T14:10:08.819Z,90.61
2022-12-15T14:11:58.080Z,90.75
2022-12-15T14:13:32.197Z,90.69
2022-12-15T14:15:04.913Z,90.93
2022-12-15T14:16:36.952Z,90.85
2022-12-15T14:18:29.085Z,90.64
2022-12-15T14:20:12.438Z,90.69
2022-12-15T14:21:58.890Z,90.61
2022-12-15T14:23:41.538Z,90.90
2022-12-15T14:25:22.881Z,90.90
2022-12-15T14:26:55.050Z,90.89
2022-12-15T14:28:33.960Z,90.83
2022-12-15T14:30:13.995Z,90.80
2022-12-15T14:31:51.101Z,90.85
2022-12-15T14:33:28.097Z,90.87
2022-12-15T14:35:01.968Z,90.88
2022-12-15T14:36:34.638Z,90.89
2022-12-15T14:38:08.945Z,91.08
2022-12-15T14:39:50.131Z,90.85
2022-12-15T14:41:31.678Z,90.93
2022-12-15T14:43:05.192Z,90.84
2022-12-15T14:44:48.078Z,91.10
2022-12-15T14:46:26.216Z,91.21
2022-12-15T14:48:39.383Z,90.81
2022-12-15T14:50:01.486Z,90.87
2022-12-15T14:51:42.873Z,91.09
2022-12-15T14:53:17.880Z,91.00
2022-12-15T14:55:01.239Z,90.97
2022-12-15T14:56:33.282Z,91.18
2022-12-15T14:58:41.134Z,90.88
2022-12-15T15:00:37.097Z,91.28
2022-12-15T15:02:20.251Z,91.26
2022-12-15T15:03:04.321Z,84.48
2022-12-15T15:03:11.858Z,90.16
2022-12-15T15:04:00.030Z,91.28
2022-12-15T15:05:33.427Z,91.17
2022-12-15T15:07:08.347Z,91.11
2022-12-15T15:10:24.406Z,91.12
2022-12-15T15:12:05.249Z,91.28
2022-12-15T15:13:40.310Z,91.52
2022-12-15T15:15:19.536Z,91.56
2022-12-15T15:17:07.235Z,91.53
2022-12-15T15:18:39.358Z,91.44
2022-12-15T15:20:27.179Z,91.72
2022-12-15T15:22:02.297Z,91.74
2022-12-15T15:23:34.615Z,91.67
2022-12-15T15:25:25.656Z,91.73
2022-12-15T15:27:24.954Z,91.76
2022-12-15T15:28:57.387Z,91.88
2022-12-15T15:30:30.697Z,91.71
2022-12-15T15:32:17.522Z,92.00
2022-12-15T15:33:49.595Z,92.11
2022-12-15T15:35:23.070Z,92.00
2022-12-15T15:36:55.256Z,92.12
2022-12-15T15:38:40.143Z,91.91
2022-12-15T15:40:14.781Z,92.24
2022-12-15T15:41:46.728Z,92.15
2022-12-15T15:43:19.774Z,92.25
2022-12-15T15:44:51.887Z,92.34
2022-12-15T15:46:26.460Z,92.14
2022-12-15T15:48:01.553Z,92.17
2022-12-15T15:49:37.910Z,92.23
2022-12-15T15:51:11.790Z,92.25
2022-12-15T15:52:44.316Z,92.33
2022-12-15T15:54:22.998Z,92.24
2022-12-15T15:55:56.271Z,92.19
2022-12-15T15:57:28.349Z,92.27
2022-12-15T15:59:10.014Z,92.28
2022-12-15T16:00:42.205Z,92.50
2022-12-15T16:02:14.893Z,92.52
2022-12-15T16:03:47.146Z,92.64
2022-12-15T16:05:21.315Z,92.26
2022-12-15T16:06:53.847Z,92.51
2022-12-15T16:08:29.106Z,92.52
2022-12-15T16:10:01.594Z,92.37
2022-12-15T16:11:34.843Z,92.54
2022-12-15T16:13:10.182Z,92.32
2022-12-15T16:14:42.188Z,92.40
2022-12-15T16:16:19.389Z,92.50
2022-12-15T16:17:52.383Z,92.68
2022-12-15T16:19:27.997Z,92.69
2022-12-15T16:21:00.036Z,92.41
2022-12-15T16:22:33.935Z,92.44
2022-12-15T16:24:11.719Z,92.44
2022-12-15T16:25:50.607Z,92.59
2022-12-15T16:27:23.269Z,92.55
2022-12-15T16:28:55.849Z,92.78
2022-12-15T16:30:28.917Z,92.65
2022-12-15T16:32:01.027Z,92.78
2022-12-15T16:33:33.105Z,92.77
2022-12-15T16:35:05.505Z,92.94
2022-12-15T16:36:37.643Z,93.16
2022-12-15T16:38:38.556Z,92.87
2022-12-15T16:40:16.088Z,93.13
2022-12-15T16:41:48.143Z,93.13
2022-12-15T16:43:22.219Z,93.16
2022-12-15T16:44:57.009Z,93.28
2022-12-15T16:46:29.079Z,93.32
2022-12-15T16:48:01.376Z,93.55
2022-12-15T16:49:39.767Z,93.36
2022-12-15T16:51:31.811Z,93.60
2022-12-15T16:53:04.807Z,93.51
2022-12-15T16:54:36.804Z,93.50
2022-12-15T16:56:13.385Z,93.40
2022-12-15T16:57:45.871Z,93.48
2022-12-15T16:59:36.430Z,93.54
2022-12-15T17:01:10.882Z,93.42
2022-12-15T17:02:44.383Z,93.47
2022-12-15T17:04:16.944Z,93.09
2022-12-15T17:05:50.888Z,92.95
2022-12-15T17:07:24.511Z,92.93
2022-12-15T17:08:56.459Z,92.85
2022-12-15T17:10:30.322Z,93.01
2022-12-15T17:12:02.571Z,92.72
2022-12-15T17:13:45.339Z,92.89
2022-12-15T17:15:23.670Z,92.83
2022-12-15T17:16:56.028Z,92.87
2022-12-15T17:18:28.514Z,93.13
2022-12-15T17:21:54.074Z,93.45
2022-12-15T17:23:26.247Z,93.37
2022-12-15T17:24:58.244Z,93.34
2022-12-15T17:26:32.229Z,93.34
2022-12-15T17:28:06.866Z,93.46
2022-12-15T17:29:39.644Z,93.50
2022-12-15T17:31:22.824Z,93.49
2022-12-15T17:32:54.939Z,93.39
2022-12-15T17:34:31.624Z,93.37
2022-12-15T17:36:07.281Z,93.58
2022-12-15T17:37:40.079Z,93.37
2022-12-15T17:39:12.274Z,93.38
2022-12-15T17:40:45.323Z,93.34
2022-12-15T17:42:21.304Z,93.47
2022-12-15T17:44:09.743Z,93.52
2022-12-15T17:47:19.974Z,93.23
2022-12-15T17:48:52.020Z,93.47
2022-12-15T17:50:25.382Z,93.52
2022-12-15T17:51:58.158Z,93.54
2022-12-15T17:53:31.007Z,93.58
2022-12-15T17:55:08.407Z,93.54
2022-12-15T17:56:42.472Z,93.57
2022-12-15T17:58:25.932Z,93.58
2022-12-15T17:59:59.096Z,93.48
2022-12-15T18:01:31.311Z,93.62
2022-12-15T18:03:03.682Z,93.93
2022-12-15T18:04:36.153Z,93.88
2022-12-15T18:06:14.989Z,93.93
2022-12-15T18:07:50.819Z,94.10
2022-12-15T18:09:23.222Z,94.22
2022-12-15T18:10:57.600Z,94.44
2022-12-15T18:12:30.014Z,94.55
2022-12-15T18:14:02.076Z,94.60
2022-12-15T18:15:34.109Z,94.69
2022-12-15T18:17:06.124Z,94.86
2022-12-15T18:18:38.406Z,94.69
2022-12-15T18:20:10.887Z,94.49
2022-12-15T18:21:42.999Z,94.52
2022-12-15T18:23:20.710Z,94.51
2022-12-15T18:24:54.081Z,94.58
2022-12-15T18:26:26.057Z,94.41
2022-12-15T18:27:58.943Z,94.46
2022-12-15T18:29:30.979Z,94.32
2022-12-15T18:31:26.779Z,94.36
2022-12-15T18:32:59.534Z,94.36
2022-12-15T18:34:31.600Z,94.18
2022-12-15T18:36:03.950Z,94.48
2022-12-15T18:37:36.305Z,94.59
2022-12-15T18:39:19.904Z,94.32
2022-12-15T18:40:53.997Z,94.20
2022-12-15T18:42:26.080Z,94.28
2022-12-15T18:43:59.210Z,94.37
2022-12-15T18:45:31.326Z,94.21
2022-12-15T18:47:03.511Z,94.35
2022-12-15T18:48:38.116Z,94.11
2022-12-15T18:50:24.652Z,94.33
2022-12-15T18:51:56.643Z,94.26
2022-12-15T18:53:35.166Z,94.22
2022-12-15T18:55:16.942Z,94.13
2022-12-15T18:56:49.131Z,93.97
2022-12-15T18:58:24.881Z,93.94
2022-12-15T19:00:16.035Z,94.11
2022-12-15T19:01:49.417Z,94.01
2022-12-15T19:03:21.888Z,93.76
2022-12-15T19:04:53.965Z,93.86
2022-12-15T19:06:35.231Z,93.29
2022-12-15T19:08:13.564Z,93.39
2022-12-15T19:09:45.633Z,93.29
2022-12-15T19:11:25.579Z,93.13
2022-12-15T19:12:58.828Z,93.01
2022-12-15T19:14:43.369Z,93.04
2022-12-15T19:16:20.223Z,92.78
2022-12-15T19:18:10.636Z,92.50
2022-12-15T19:21:49.333Z,92.68
2022-12-15T19:23:21.838Z,92.77
2022-12-15T19:24:56.794Z,92.61
2022-12-15T19:26:28.973Z,92.68
2022-12-15T19:28:01.299Z,92.42
2022-12-15T19:29:33.265Z,92.65
2022-12-15T19:31:05.456Z,92.62
2022-12-15T19:32:37.553Z,92.49
2022-12-15T19:34:10.344Z,92.42
2022-12-15T19:35:44.604Z,92.42
2022-12-15T19:37:24.823Z,92.15
2022-12-15T19:38:56.908Z,92.22
2022-12-15T19:40:30.993Z,92.19
2022-12-15T19:42:06.552Z,92.23
2022-12-15T19:43:42.752Z,92.21
2022-12-15T19:45:20.566Z,92.26
2022-12-15T19:46:52.815Z,91.99
2022-12-15T19:48:24.814Z,92.19
2022-12-15T19:51:38.269Z,92.40
2022-12-15T19:53:26.288Z,92.44
2022-12-15T19:54:58.344Z,92.59
2022-12-15T19:56:30.512Z,92.34
2022-12-15T19:58:27.102Z,92.29
2022-12-15T19:59:59.972Z,92.28
2022-12-15T20:01:32.061Z,92.63
2022-12-15T20:03:04.405Z,92.52
2022-12-15T20:04:36.433Z,92.74
2022-12-15T20:06:23.979Z,92.68
2022-12-15T20:07:56.120Z,93.21
2022-12-15T20:09:28.260Z,93.20
2022-12-15T20:11:00.961Z,93.37
2022-12-15T20:12:32.954Z,93.18
2022-12-15T20:14:12.925Z,93.55
2022-12-15T20:15:45.798Z,93.74
2022-12-15T20:17:17.842Z,93.65
2022-12-15T20:18:55.059Z,93.63
2022-12-15T20:20:28.833Z,93.74
2022-12-15T20:22:02.357Z,93.98
2022-12-15T20:25:23.840Z,94.07
2022-12-15T20:26:55.890Z,94.20
2022-12-15T20:28:29.972Z,94.18
2022-12-15T20:30:01.904Z,94.17
2022-12-15T20:31:34.384Z,94.10
2022-12-15T20:33:06.475Z,94.17
2022-12-15T20:34:38.445Z,94.15
2022-12-15T20:36:17.780Z,94.23
2022-12-15T20:37:50.290Z,93.99
2022-12-15T20:39:28.036Z,94.33
2022-12-15T20:41:01.464Z,94.03
2022-12-15T20:42:33.467Z,94.07
2022-12-15T20:44:06.016Z,93.90
2022-12-15T20:45:38.043Z,94.23
2022-12-15T20:47:28.125Z,93.89
2022-12-15T20:49:00.189Z,94.04
2022-12-15T20:50:37.820Z,94.17
2022-12-15T20:52:19.277Z,94.24
2022-12-15T20:53:52.470Z,94.45
2022-12-15T20:55:24.858Z,94.50
2022-12-15T20:56:56.901Z,94.39
2022-12-15T20:58:33.373Z,94.48
2022-12-15T21:00:06.616Z,94.42
2022-12-15T21:01:39.751Z,94.65
2022-12-15T21:03:26.263Z,94.64
2022-12-15T21:04:58.302Z,94.66
2022-12-15T21:06:30.895Z,94.84
2022-12-15T21:08:10.402Z,94.63
2022-12-15T21:09:42.483Z,94.52
2022-12-15T21:11:23.028Z,94.62
2022-12-15T21:12:55.552Z,94.87
2022-12-15T21:14:27.713Z,94.71
2022-12-15T21:15:59.715Z,95.06
2022-12-15T21:17:31.681Z,95.03
2022-12-15T21:19:19.877Z,95.26
2022-12-15T21:20:55.621Z,95.05
2022-12-15T21:22:28.302Z,95.08
2022-12-15T21:24:02.054Z,95.17
2022-12-15T21:25:34.856Z,95.34
2022-12-15T21:27:09.676Z,95.38
2022-12-15T21:28:41.693Z,95.47
2022-12-15T21:30:21.985Z,95.28
2022-12-15T21:31:54.049Z,95.02
2022-12-15T21:33:26.128Z,95.09
2022-12-15T21:34:58.110Z,95.08
2022-12-15T21:36:30.202Z,94.96
2022-12-15T21:38:02.245Z,95.14
2022-12-15T21:39:36.382Z,95.22